createdAt,value
2019-02-23T00:00:55.108Z,11.30
2019-02-23T00:06:00.357Z,10.97
2019-02-23T00:11:06.063Z,10.97
2019-02-23T00:16:10.490Z,9.90
2019-02-23T00:21:15.818Z,9.23
2019-02-23T00:26:20.770Z,9.27
2019-02-23T00:31:25.215Z,8.27
2019-02-23T00:36:29.949Z,8.57
2019-02-23T00:41:34.889Z,8.73
2019-02-23T00:46:39.439Z,8.20
2019-02-23T00:51:43.718Z,9.53
2019-02-23T00:56:48.906Z,8.70
2019-02-23T01:01:53.575Z,8.30
2019-02-23T01:06:58.049Z,8.10
2019-02-23T01:12:02.406Z,7.83
2019-02-23T01:17:07.119Z,8.87
2019-02-23T01:22:12.044Z,9.57
2019-02-23T01:27:16.853Z,11.57
2019-02-23T01:32:23.586Z,12.73
2019-02-23T01:37:28.341Z,11.12
2019-02-23T01:42:33.070Z,11.33
2019-02-23T01:47:38.348Z,10.60
2019-02-23T01:52:43.829Z,11.50
2019-02-23T01:57:50.258Z,10.87
2019-02-23T02:02:55.257Z,11.93
2019-02-23T02:08:00.322Z,10.57
2019-02-23T02:13:05.342Z,9.30
2019-02-23T02:18:10.412Z,10.73
2019-02-23T02:23:15.056Z,9.93
2019-02-23T02:28:19.721Z,10.88
2019-02-23T02:33:24.745Z,11.83
2019-02-23T02:38:29.547Z,10.33
2019-02-23T02:43:34.254Z,10.13
2019-02-23T02:48:39.294Z,9.57
2019-02-23T02:53:43.777Z,10.23
2019-02-23T02:58:49.207Z,9.77
2019-02-23T03:03:54.292Z,10.50
2019-02-23T03:08:58.958Z,10.17
2019-02-23T03:14:03.541Z,11.83
2019-02-23T03:19:09.365Z,9.47
2019-02-23T03:24:14.169Z,10.67
2019-02-23T03:29:18.942Z,9.83
2019-02-23T03:34:23.573Z,10.90
2019-02-23T03:39:28.151Z,10.07
2019-02-23T03:44:32.534Z,10.90
2019-02-23T03:49:37.273Z,10.57
2019-02-23T03:54:42.401Z,12.00
2019-02-23T03:59:49.443Z,10.80
2019-02-23T04:04:54.413Z,10.80
2019-02-23T04:09:59.145Z,10.83
2019-02-23T04:15:03.575Z,11.20
2019-02-23T04:20:08.049Z,10.48
2019-02-23T04:25:12.899Z,11.15
2019-02-23T04:30:17.733Z,13.20
2019-02-23T04:35:23.163Z,13.23
2019-02-23T04:40:28.378Z,13.60
2019-02-23T04:45:32.781Z,15.37
2019-02-23T04:50:38.372Z,16.67
2019-02-23T04:55:43.776Z,14.53
2019-02-23T05:00:48.595Z,17.13
2019-02-23T05:05:54.997Z,16.20
2019-02-23T05:10:59.312Z,16.07
2019-02-23T05:16:04.161Z,14.47
2019-02-23T05:21:09.160Z,14.90
2019-02-23T05:26:14.352Z,13.23
2019-02-23T05:31:18.842Z,13.43
2019-02-23T05:36:23.785Z,14.47
2019-02-23T05:41:29.948Z,15.20
2019-02-23T05:46:34.502Z,14.23
2019-02-23T05:51:39.264Z,13.67
2019-02-23T05:56:43.631Z,14.10
2019-02-23T06:01:48.186Z,15.60
2019-02-23T06:06:52.942Z,15.37
2019-02-23T06:11:57.284Z,16.27
2019-02-23T06:17:04.106Z,21.30
2019-02-23T06:22:08.465Z,17.00
2019-02-23T06:27:13.053Z,19.73
2019-02-23T06:32:19.326Z,17.63
2019-02-23T06:37:24.227Z,17.87
2019-02-23T06:42:28.975Z,16.17
2019-02-23T06:47:34.335Z,16.67
2019-02-23T06:52:38.603Z,18.10
2019-02-23T06:57:43.892Z,17.07
2019-02-23T07:02:48.533Z,15.20
2019-02-23T07:07:58.559Z,12.67
2019-02-23T07:13:05.554Z,11.10
2019-02-23T07:18:10.686Z,10.43
2019-02-23T07:23:16.101Z,11.03
2019-02-23T07:28:21.553Z,10.10
2019-02-23T07:33:32.679Z,11.83
2019-02-23T07:38:35.557Z,11.33
2019-02-23T07:43:41.015Z,11.80
2019-02-23T07:48:45.911Z,11.30
2019-02-23T07:53:51.883Z,11.47
2019-02-23T07:58:57.822Z,12.50
2019-02-23T08:04:05.933Z,12.07
2019-02-23T08:09:11.956Z,10.87
2019-02-23T08:14:17.541Z,10.53
2019-02-23T08:19:21.961Z,10.70
2019-02-23T08:24:27.634Z,8.93
2019-02-23T08:29:32.787Z,8.60
2019-02-23T08:34:37.437Z,9.20
2019-02-23T08:39:42.455Z,9.10
2019-02-23T08:44:48.235Z,8.23
2019-02-23T08:49:53.236Z,8.80
2019-02-23T08:54:58.817Z,9.50
2019-02-23T09:00:04.523Z,8.67
2019-02-23T09:05:13.125Z,10.93
2019-02-23T09:10:18.016Z,9.63
2019-02-23T09:15:23.491Z,8.67
2019-02-23T09:20:29.751Z,8.70
2019-02-23T09:25:37.006Z,10.03
2019-02-23T09:30:42.455Z,9.00
2019-02-23T09:35:47.708Z,11.48
2019-02-23T09:40:55.228Z,11.30
2019-02-23T09:46:00.197Z,9.60
2019-02-23T09:51:04.671Z,9.50
2019-02-23T09:56:21.022Z,9.58
2019-02-23T10:01:25.468Z,8.60
2019-02-23T10:06:32.591Z,10.43
2019-02-23T10:11:39.385Z,7.23
2019-02-23T10:16:44.162Z,11.30
2019-02-23T10:21:51.428Z,8.87
2019-02-23T10:26:56.255Z,6.33
2019-02-23T10:32:01.242Z,8.23
2019-02-23T10:37:05.737Z,7.43
2019-02-23T10:42:10.364Z,6.80
2019-02-23T10:47:15.280Z,6.03
2019-02-23T10:52:20.198Z,6.10
2019-02-23T10:57:24.813Z,5.40
2019-02-23T11:02:29.190Z,5.43
2019-02-23T11:07:34.094Z,5.70
2019-02-23T11:12:38.765Z,5.00
2019-02-23T11:17:43.324Z,5.27
2019-02-23T11:22:48.732Z,4.10
2019-02-23T11:27:54.297Z,3.37
2019-02-23T11:32:59.169Z,2.80
2019-02-23T11:38:03.958Z,2.87
2019-02-23T11:43:08.571Z,3.03
2019-02-23T11:48:14.126Z,2.83
2019-02-23T11:53:18.598Z,2.60
2019-02-23T11:58:23.380Z,2.70
2019-02-23T12:03:30.534Z,2.67
2019-02-23T12:08:35.537Z,2.87
2019-02-23T12:13:41.300Z,2.50
2019-02-23T12:18:45.681Z,3.67
2019-02-23T12:24:06.516Z,3.17
2019-02-23T12:29:18.690Z,2.58
2019-02-23T12:34:26.101Z,2.63
2019-02-23T12:39:32.721Z,2.50
2019-02-23T12:44:41.355Z,2.30
2019-02-23T12:49:49.144Z,2.60
2019-02-23T12:54:55.807Z,2.13
2019-02-23T13:00:00.418Z,2.40
2019-02-23T13:05:05.923Z,2.23
2019-02-23T13:10:11.575Z,2.70
2019-02-23T13:15:25.345Z,2.40
2019-02-23T13:20:53.452Z,2.40
2019-02-23T13:26:57.823Z,2.83
2019-02-23T13:32:30.811Z,3.67
2019-02-23T13:38:06.747Z,2.90
2019-02-23T13:43:43.811Z,3.00
2019-02-23T13:49:17.102Z,2.33
2019-02-23T13:55:12.295Z,2.50
2019-02-23T14:01:03.975Z,2.10
2019-02-23T14:06:57.810Z,1.90
2019-02-23T14:12:25.845Z,2.50
2019-02-23T14:17:47.529Z,2.37
2019-02-23T14:23:35.867Z,2.60
2019-02-23T14:29:09.725Z,2.57
2019-02-23T14:34:51.227Z,2.17
2019-02-23T14:40:33.919Z,3.97
2019-02-23T14:46:00.794Z,2.30
2019-02-23T14:52:07.864Z,2.87
2019-02-23T14:58:02.928Z,1.90
2019-02-23T15:03:52.103Z,2.40
2019-02-23T15:09:36.577Z,1.80
2019-02-23T15:14:56.163Z,2.00
2019-02-23T15:20:52.480Z,2.27
2019-02-23T15:26:49.513Z,2.57
2019-02-23T15:32:28.093Z,2.70
2019-02-23T15:37:52.217Z,3.10
2019-02-23T15:43:34.459Z,3.40
2019-02-23T15:48:48.090Z,3.50
2019-02-23T15:53:53.364Z,3.03
2019-02-23T15:58:57.894Z,2.47
2019-02-23T16:04:04.257Z,3.60
2019-02-23T16:09:10.442Z,2.50
2019-02-23T16:14:15.300Z,2.67
2019-02-23T16:19:19.769Z,2.40
2019-02-23T16:24:24.696Z,2.47
2019-02-23T16:29:30.364Z,4.40
2019-02-23T16:34:35.314Z,9.47
2019-02-23T16:39:40.664Z,5.47
2019-02-23T16:44:45.679Z,3.57
2019-02-23T16:49:50.343Z,3.00
2019-02-23T16:54:55.108Z,3.60
2019-02-23T16:59:59.748Z,3.53
2019-02-23T17:05:04.443Z,3.70
2019-02-23T17:10:11.158Z,3.23
2019-02-23T17:15:16.325Z,3.70
2019-02-23T17:20:21.360Z,4.00
2019-02-23T17:25:26.925Z,3.92
2019-02-23T17:30:31.863Z,2.83
2019-02-23T17:35:39.164Z,2.80
2019-02-23T17:40:44.049Z,2.77
2019-02-23T17:45:52.102Z,3.20
2019-02-23T17:50:57.146Z,3.03
2019-02-23T17:56:02.481Z,3.50
2019-02-23T18:01:08.303Z,2.30
2019-02-23T18:06:13.680Z,2.67
2019-02-23T18:11:21.697Z,2.60
2019-02-23T18:16:27.833Z,3.00
2019-02-23T18:21:32.493Z,2.43
2019-02-23T18:26:37.239Z,2.40
2019-02-23T18:31:43.119Z,2.73
2019-02-23T18:36:48.559Z,2.30
2019-02-23T18:41:54.918Z,2.40
2019-02-23T18:46:59.897Z,2.70
2019-02-23T18:52:04.983Z,2.87
2019-02-23T18:57:11.103Z,2.80
2019-02-23T19:02:21.934Z,2.47
2019-02-23T19:07:26.881Z,3.10
2019-02-23T19:12:31.883Z,2.77
2019-02-23T19:17:38.249Z,3.17
2019-02-23T19:22:44.882Z,2.47
2019-02-23T19:27:49.615Z,2.90
2019-02-23T19:32:55.949Z,3.60
2019-02-23T19:38:01.559Z,7.63
2019-02-23T19:43:06.960Z,7.33
2019-02-23T19:48:14.162Z,15.23
2019-02-23T19:53:19.124Z,8.77
2019-02-23T19:58:24.598Z,4.80
2019-02-23T20:03:34.252Z,5.13
2019-02-23T20:08:41.482Z,6.40
2019-02-23T20:13:46.443Z,2.20
2019-02-23T20:18:51.985Z,2.47
2019-02-23T20:23:56.434Z,2.35
2019-02-23T20:29:04.834Z,2.50
2019-02-23T20:34:10.251Z,2.57
2019-02-23T20:39:15.707Z,2.40
2019-02-23T20:44:21.874Z,2.43
2019-02-23T20:49:31.582Z,1.77
2019-02-23T20:54:36.127Z,2.00
2019-02-23T20:59:41.451Z,2.70
2019-02-23T21:04:47.010Z,2.33
2019-02-23T21:09:52.280Z,1.63
2019-02-23T21:15:00.150Z,1.83
2019-02-23T21:20:05.432Z,2.17
2019-02-23T21:25:13.340Z,2.00
2019-02-23T21:30:18.346Z,2.10
2019-02-23T21:35:24.026Z,1.90
2019-02-23T21:40:28.908Z,1.87
2019-02-23T21:45:33.948Z,1.40
2019-02-23T21:50:42.039Z,1.53
2019-02-23T21:55:47.204Z,2.10
2019-02-23T22:00:52.293Z,1.97
2019-02-23T22:05:56.898Z,1.90
2019-02-23T22:11:01.534Z,2.33
2019-02-23T22:16:06.621Z,2.07
2019-02-23T22:21:11.695Z,3.10
2019-02-23T22:26:16.862Z,1.57
2019-02-23T22:31:21.562Z,1.80
2019-02-23T22:36:26.242Z,1.40
2019-02-23T22:41:31.273Z,1.70
2019-02-23T22:46:36.013Z,1.50
2019-02-23T22:51:40.385Z,1.60
2019-02-23T22:56:45.684Z,1.73
2019-02-23T23:01:50.529Z,1.77
2019-02-23T23:06:55.250Z,1.50
2019-02-23T23:11:59.652Z,1.40
2019-02-23T23:17:04.496Z,1.47
2019-02-23T23:22:09.423Z,1.80
2019-02-23T23:27:14.068Z,1.50
2019-02-23T23:32:18.669Z,1.43
2019-02-23T23:37:23.218Z,1.32
2019-02-23T23:42:28.198Z,1.30
2019-02-23T23:47:32.877Z,1.43
2019-02-23T23:52:37.640Z,1.00
2019-02-23T23:57:42.380Z,1.40
